createdAt,value
2019-05-19T00:01:47.099Z,6.40
2019-05-19T00:04:16.579Z,6.53
2019-05-19T00:06:46.051Z,6.58
2019-05-19T00:09:16.686Z,6.45
2019-05-19T00:11:46.331Z,6.90
2019-05-19T00:14:15.806Z,6.83
2019-05-19T00:16:45.459Z,6.72
2019-05-19T00:19:26.359Z,6.80
2019-05-19T00:21:48.067Z,6.47
2019-05-19T00:24:17.677Z,7.03
2019-05-19T00:26:48.323Z,6.97
2019-05-19T00:29:19.206Z,7.45
2019-05-19T00:31:48.764Z,7.50
2019-05-19T00:34:18.301Z,6.95
2019-05-19T00:36:48.044Z,7.08
2019-05-19T00:39:17.573Z,7.58
2019-05-19T00:41:48.655Z,7.62
2019-05-19T00:44:18.250Z,7.40
2019-05-19T00:46:47.858Z,7.75
2019-05-19T00:49:17.397Z,7.20
2019-05-19T00:51:47.169Z,7.92
2019-05-19T00:54:16.648Z,8.00
2019-05-19T00:56:46.780Z,8.00
2019-05-19T00:59:16.342Z,7.53
2019-05-19T01:01:45.883Z,7.72
2019-05-19T01:04:18.087Z,8.53
2019-05-19T01:06:47.579Z,7.97
2019-05-19T01:09:17.052Z,7.85
2019-05-19T01:11:47.966Z,8.48
2019-05-19T01:14:17.460Z,7.75
2019-05-19T01:16:46.981Z,7.97
2019-05-19T01:19:16.790Z,7.85
2019-05-19T01:21:46.536Z,8.78
2019-05-19T01:24:16.013Z,8.60
2019-05-19T01:26:45.533Z,8.00
2019-05-19T01:29:15.073Z,8.70
2019-05-19T01:31:44.565Z,8.43
2019-05-19T01:34:14.065Z,9.03
2019-05-19T01:36:43.620Z,8.60
2019-05-19T01:39:13.138Z,8.53
2019-05-19T01:41:42.703Z,8.90
2019-05-19T01:44:12.337Z,8.85
2019-05-19T01:46:41.821Z,9.08
2019-05-19T01:49:11.375Z,9.23
2019-05-19T01:51:40.869Z,8.93
2019-05-19T01:54:10.361Z,8.95
2019-05-19T01:56:39.907Z,8.73
2019-05-19T01:59:09.377Z,9.05
2019-05-19T02:01:38.927Z,8.58
2019-05-19T02:04:08.421Z,9.48
2019-05-19T02:06:37.893Z,9.48
2019-05-19T02:09:08.154Z,9.53
2019-05-19T02:11:37.805Z,9.58
2019-05-19T02:14:07.415Z,9.13
2019-05-19T02:16:36.898Z,9.53
2019-05-19T02:19:06.529Z,9.73
2019-05-19T02:21:35.985Z,10.28
2019-05-19T02:24:05.460Z,10.03
2019-05-19T02:26:35.410Z,9.98
2019-05-19T02:29:04.910Z,10.45
2019-05-19T02:31:34.458Z,9.75
2019-05-19T02:34:04.011Z,10.28
2019-05-19T02:36:33.581Z,10.95
2019-05-19T02:39:05.203Z,10.43
2019-05-19T02:41:35.805Z,10.50
2019-05-19T02:44:07.312Z,10.05
2019-05-19T02:46:37.982Z,9.93
2019-05-19T02:49:08.969Z,10.00
2019-05-19T02:51:41.114Z,10.05
2019-05-19T02:54:11.827Z,10.53
2019-05-19T02:56:42.411Z,10.93
2019-05-19T02:59:12.243Z,11.10
2019-05-19T03:02:06.912Z,10.30
2019-05-19T03:04:36.467Z,11.97
2019-05-19T03:07:05.954Z,10.72
2019-05-19T03:09:35.447Z,10.30
2019-05-19T03:12:05.046Z,11.15
2019-05-19T03:14:34.589Z,10.80
2019-05-19T03:17:04.021Z,11.20
2019-05-19T03:19:33.599Z,10.80
2019-05-19T03:22:03.073Z,10.40
2019-05-19T03:24:32.592Z,10.58
2019-05-19T03:27:02.266Z,10.88
2019-05-19T03:29:36.256Z,10.35
2019-05-19T03:32:24.711Z,9.90
2019-05-19T03:34:54.329Z,10.72
2019-05-19T03:37:23.883Z,10.80
2019-05-19T03:39:53.438Z,10.78
2019-05-19T03:42:23.014Z,11.25
2019-05-19T03:44:52.631Z,11.15
2019-05-19T03:47:24.802Z,11.57
2019-05-19T03:49:58.515Z,12.05
2019-05-19T03:52:28.055Z,11.35
2019-05-19T03:54:57.559Z,11.30
2019-05-19T03:57:27.082Z,11.48
2019-05-19T03:59:56.615Z,11.28
2019-05-19T04:02:26.132Z,11.65
2019-05-19T04:04:55.763Z,12.10
2019-05-19T04:07:25.300Z,11.22
2019-05-19T04:09:54.784Z,11.88
2019-05-19T04:12:24.377Z,11.55
2019-05-19T04:14:53.934Z,11.88
2019-05-19T04:17:23.392Z,13.58
2019-05-19T04:19:53.039Z,12.40
2019-05-19T04:22:22.510Z,11.65
2019-05-19T04:24:52.069Z,12.15
2019-05-19T04:27:21.716Z,11.97
2019-05-19T04:29:51.235Z,12.43
2019-05-19T04:32:20.874Z,12.30
2019-05-19T04:34:50.375Z,12.60
2019-05-19T04:37:19.901Z,13.38
2019-05-19T04:39:49.728Z,11.83
2019-05-19T04:42:19.268Z,11.08
2019-05-19T04:44:48.749Z,11.25
2019-05-19T04:47:18.369Z,11.65
2019-05-19T04:49:47.942Z,11.25
2019-05-19T04:52:17.558Z,10.18
2019-05-19T04:54:48.612Z,10.88
2019-05-19T04:57:18.345Z,11.60
2019-05-19T04:59:49.115Z,10.80
2019-05-19T05:02:22.099Z,10.20
2019-05-19T05:04:53.304Z,9.80
2019-05-19T05:07:24.882Z,9.90
2019-05-19T05:09:57.557Z,10.63
2019-05-19T05:12:27.262Z,10.13
2019-05-19T05:14:57.012Z,10.75
2019-05-19T05:17:26.638Z,10.90
2019-05-19T05:19:58.785Z,10.45
2019-05-19T05:22:28.451Z,10.68
2019-05-19T05:24:58.334Z,10.80
2019-05-19T05:27:27.856Z,10.75
2019-05-19T05:29:57.516Z,9.83
2019-05-19T05:32:30.616Z,9.58
2019-05-19T05:35:02.699Z,9.45
2019-05-19T05:37:33.831Z,9.33
2019-05-19T05:40:10.376Z,9.63
2019-05-19T05:42:41.059Z,9.10
2019-05-19T05:45:11.019Z,8.73
2019-05-19T05:47:40.690Z,8.28
2019-05-19T05:50:10.374Z,8.75
2019-05-19T05:52:40.508Z,8.33
2019-05-19T05:55:10.520Z,7.47
2019-05-19T05:57:40.046Z,7.70
2019-05-19T06:00:10.104Z,7.28
2019-05-19T06:02:41.077Z,7.85
2019-05-19T06:05:14.232Z,7.92
2019-05-19T06:07:44.068Z,7.30
2019-05-19T06:10:16.061Z,7.00
2019-05-19T06:12:45.753Z,6.78
2019-05-19T06:15:15.435Z,7.72
2019-05-19T06:17:45.010Z,7.20
2019-05-19T06:20:14.765Z,7.28
2019-05-19T06:22:55.839Z,6.72
2019-05-19T06:25:17.844Z,6.90
2019-05-19T06:27:47.379Z,6.53
2019-05-19T06:30:17.373Z,6.67
2019-05-19T06:32:50.074Z,7.33
2019-05-19T06:35:19.552Z,6.62
2019-05-19T06:37:49.482Z,7.12
2019-05-19T06:40:19.153Z,6.58
2019-05-19T06:42:48.993Z,7.03
2019-05-19T06:45:18.620Z,6.65
2019-05-19T06:47:48.280Z,6.20
2019-05-19T06:50:17.977Z,5.80
2019-05-19T06:52:47.611Z,6.70
2019-05-19T06:55:17.434Z,6.67
2019-05-19T06:57:47.107Z,6.53
2019-05-19T07:00:16.843Z,6.75
2019-05-19T07:02:46.702Z,6.47
2019-05-19T07:05:16.703Z,7.03
2019-05-19T07:07:46.256Z,6.17
2019-05-19T07:10:16.771Z,6.90
2019-05-19T07:12:46.351Z,6.83
2019-05-19T07:15:16.203Z,6.87
2019-05-19T07:17:45.819Z,6.75
2019-05-19T07:20:15.291Z,6.75
2019-05-19T07:22:45.005Z,7.28
2019-05-19T07:25:14.490Z,6.05
2019-05-19T07:27:45.355Z,6.47
2019-05-19T07:30:15.842Z,6.15
2019-05-19T07:32:45.313Z,6.22
2019-05-19T07:35:15.542Z,6.20
2019-05-19T07:37:45.481Z,6.40
2019-05-19T07:40:16.591Z,5.65
2019-05-19T07:42:46.047Z,6.12
2019-05-19T07:45:16.156Z,6.83
2019-05-19T07:47:47.422Z,5.62
2019-05-19T07:50:16.933Z,6.15
2019-05-19T07:52:46.657Z,5.53
2019-05-19T07:55:16.311Z,5.08
2019-05-19T07:57:46.220Z,5.28
2019-05-19T08:00:15.819Z,5.92
2019-05-19T08:02:45.989Z,5.97
2019-05-19T08:05:15.603Z,5.37
2019-05-19T08:07:45.111Z,5.30
2019-05-19T08:10:14.584Z,5.22
2019-05-19T08:12:44.474Z,5.62
2019-05-19T08:15:14.151Z,5.95
2019-05-19T08:17:43.825Z,5.37
2019-05-19T08:20:13.653Z,5.62
2019-05-19T08:22:44.745Z,5.20
2019-05-19T08:25:14.803Z,5.72
2019-05-19T08:27:44.495Z,5.40
2019-05-19T08:30:14.296Z,5.08
2019-05-19T08:32:44.192Z,5.08
2019-05-19T08:35:13.697Z,4.83
2019-05-19T08:37:43.375Z,6.15
2019-05-19T08:40:12.890Z,5.20
2019-05-19T08:42:42.853Z,4.80
2019-05-19T08:45:12.980Z,5.37
2019-05-19T08:47:42.527Z,5.47
2019-05-19T08:50:12.734Z,5.10
2019-05-19T08:52:42.267Z,5.53
2019-05-19T08:55:11.852Z,5.45
2019-05-19T08:57:41.626Z,5.47
2019-05-19T09:00:11.308Z,5.22
2019-05-19T09:02:41.304Z,5.08
2019-05-19T09:05:11.259Z,5.17
2019-05-19T09:07:40.875Z,4.70
2019-05-19T09:10:10.382Z,4.67
2019-05-19T09:12:40.464Z,4.92
2019-05-19T09:15:10.832Z,4.50
2019-05-19T09:17:40.496Z,5.30
2019-05-19T09:20:10.123Z,5.05
2019-05-19T09:22:39.670Z,4.90
2019-05-19T09:25:09.526Z,4.65
2019-05-19T09:27:39.051Z,4.80
2019-05-19T09:30:09.745Z,4.62
2019-05-19T09:32:39.257Z,4.42
2019-05-19T09:35:09.583Z,5.08
2019-05-19T09:37:39.275Z,5.17
2019-05-19T09:40:09.056Z,5.03
2019-05-19T09:42:38.732Z,4.78
2019-05-19T09:45:08.463Z,5.25
2019-05-19T09:47:38.171Z,4.78
2019-05-19T09:50:08.465Z,5.10
2019-05-19T09:52:38.067Z,4.67
2019-05-19T09:55:07.836Z,4.53
2019-05-19T09:57:37.638Z,4.55
2019-05-19T10:00:07.741Z,5.03
2019-05-19T10:02:37.346Z,4.25
2019-05-19T10:05:07.807Z,4.97
2019-05-19T10:07:37.341Z,4.60
2019-05-19T10:10:11.361Z,4.25
2019-05-19T10:12:41.179Z,4.78
2019-05-19T10:15:12.188Z,4.58
2019-05-19T10:17:41.707Z,4.47
2019-05-19T10:20:12.658Z,4.80
2019-05-19T10:22:43.523Z,4.83
2019-05-19T10:25:22.624Z,4.87
2019-05-19T10:27:44.713Z,4.78
2019-05-19T10:30:16.502Z,4.33
2019-05-19T10:32:46.366Z,3.98
2019-05-19T10:35:15.907Z,3.70
2019-05-19T10:37:45.728Z,3.80
2019-05-19T10:40:15.490Z,3.83
2019-05-19T10:42:45.151Z,3.77
2019-05-19T10:45:14.770Z,3.85
2019-05-19T10:47:44.234Z,3.58
2019-05-19T10:50:13.898Z,3.65
2019-05-19T10:52:43.431Z,3.65
2019-05-19T10:55:12.997Z,3.60
2019-05-19T10:57:42.671Z,3.45
2019-05-19T11:00:12.675Z,3.60
2019-05-19T11:02:42.168Z,3.80
2019-05-19T11:05:11.842Z,3.55
2019-05-19T11:07:41.808Z,3.60
2019-05-19T11:10:11.939Z,3.25
2019-05-19T11:12:41.403Z,3.60
2019-05-19T11:15:11.518Z,3.02
2019-05-19T11:17:41.001Z,3.37
2019-05-19T11:20:10.451Z,2.87
2019-05-19T11:22:39.950Z,3.00
2019-05-19T11:25:09.516Z,3.05
2019-05-19T11:27:38.973Z,3.10
2019-05-19T11:30:09.295Z,3.00
2019-05-19T11:32:39.168Z,2.92
2019-05-19T11:35:09.070Z,3.27
2019-05-19T11:37:38.606Z,3.05
2019-05-19T11:40:08.236Z,2.95
2019-05-19T11:42:37.708Z,3.67
2019-05-19T11:45:07.551Z,3.37
2019-05-19T11:47:37.042Z,3.90
2019-05-19T11:50:06.581Z,4.12
2019-05-19T11:52:36.245Z,3.87
2019-05-19T11:55:05.999Z,3.90
2019-05-19T11:57:35.886Z,4.00
2019-05-19T12:00:05.791Z,3.50
2019-05-19T12:02:36.248Z,3.83
2019-05-19T12:05:05.992Z,3.72
2019-05-19T12:07:35.533Z,3.85
2019-05-19T12:10:08.311Z,3.98
2019-05-19T12:12:38.889Z,3.85
2019-05-19T12:15:09.760Z,3.40
2019-05-19T12:17:39.230Z,3.80
2019-05-19T12:20:08.992Z,3.95
2019-05-19T12:22:38.732Z,3.52
2019-05-19T12:25:08.373Z,3.67
2019-05-19T12:27:38.122Z,3.75
2019-05-19T12:30:08.410Z,3.52
2019-05-19T12:32:38.042Z,5.20
2019-05-19T12:35:08.266Z,3.62
2019-05-19T12:37:37.999Z,4.00
2019-05-19T12:40:07.733Z,4.08
2019-05-19T12:42:37.710Z,4.08
2019-05-19T12:45:07.705Z,4.25
2019-05-19T12:47:37.221Z,6.12
2019-05-19T12:50:07.675Z,4.20
2019-05-19T12:52:37.325Z,4.17
2019-05-19T12:55:07.080Z,4.33
2019-05-19T12:57:36.800Z,4.17
2019-05-19T13:00:08.315Z,4.53
2019-05-19T13:02:38.277Z,4.70
2019-05-19T13:05:11.052Z,4.28
2019-05-19T13:07:40.534Z,4.17
2019-05-19T13:10:10.321Z,3.60
2019-05-19T13:12:39.867Z,4.28
2019-05-19T13:15:10.398Z,4.42
2019-05-19T13:17:39.931Z,3.98
2019-05-19T13:20:10.356Z,4.35
2019-05-19T13:22:39.861Z,4.47
2019-05-19T13:25:09.380Z,4.25
2019-05-19T13:27:38.864Z,4.60
2019-05-19T13:30:08.837Z,4.28
2019-05-19T13:32:38.407Z,3.80
2019-05-19T13:35:08.465Z,4.65
2019-05-19T13:37:37.884Z,4.42
2019-05-19T13:40:07.388Z,3.95
2019-05-19T13:42:36.876Z,4.30
2019-05-19T13:45:06.845Z,3.95
2019-05-19T13:47:36.810Z,4.10
2019-05-19T13:50:07.527Z,3.83
2019-05-19T13:52:36.996Z,3.72
2019-05-19T13:55:06.660Z,4.12
2019-05-19T13:57:36.133Z,4.15
2019-05-19T14:00:06.244Z,3.85
2019-05-19T14:02:35.766Z,4.55
2019-05-19T14:05:05.441Z,4.03
2019-05-19T14:07:34.920Z,4.17
2019-05-19T14:10:04.523Z,4.95
2019-05-19T14:12:34.081Z,4.12
2019-05-19T14:15:04.233Z,4.30
2019-05-19T14:17:33.925Z,3.90
2019-05-19T14:20:03.563Z,4.37
2019-05-19T14:22:32.972Z,5.17
2019-05-19T14:25:02.463Z,5.33
2019-05-19T14:27:31.947Z,5.35
2019-05-19T14:30:01.397Z,5.50
2019-05-19T14:32:30.843Z,5.87
2019-05-19T14:35:00.338Z,9.80
2019-05-19T14:37:29.788Z,5.45
2019-05-19T14:39:59.240Z,4.75
2019-05-19T14:42:51.139Z,4.55
2019-05-19T14:45:21.172Z,4.33
2019-05-19T14:47:50.651Z,4.45
2019-05-19T14:50:21.986Z,4.75
2019-05-19T14:52:51.477Z,4.40
2019-05-19T14:55:29.055Z,4.55
2019-05-19T14:58:00.122Z,4.10
2019-05-19T15:00:29.617Z,4.22
2019-05-19T15:02:59.078Z,5.55
2019-05-19T15:05:28.564Z,3.50
2019-05-19T15:07:58.012Z,4.25
2019-05-19T15:10:27.439Z,4.25
2019-05-19T15:12:56.927Z,3.90
2019-05-19T15:15:26.418Z,4.00
2019-05-19T15:17:55.834Z,3.80
2019-05-19T15:20:25.328Z,3.98
2019-05-19T15:22:54.791Z,4.62
2019-05-19T15:25:24.280Z,3.80
2019-05-19T15:28:00.327Z,4.00
2019-05-19T15:30:24.847Z,3.67
2019-05-19T15:32:54.394Z,3.75
2019-05-19T15:35:23.861Z,3.65
2019-05-19T15:37:53.298Z,3.98
2019-05-19T15:40:22.834Z,8.18
2019-05-19T15:42:52.265Z,3.17
2019-05-19T15:45:21.745Z,3.60
2019-05-19T15:47:51.220Z,3.67
2019-05-19T15:50:23.642Z,3.60
2019-05-19T15:52:53.186Z,3.50
2019-05-19T15:55:22.662Z,3.98
2019-05-19T15:57:52.088Z,3.50
2019-05-19T16:00:23.145Z,4.00
2019-05-19T16:02:52.641Z,3.62
2019-05-19T16:05:22.163Z,3.80
2019-05-19T16:07:51.650Z,3.85
2019-05-19T16:10:21.234Z,4.03
2019-05-19T16:12:50.760Z,3.67
2019-05-19T16:15:20.433Z,3.90
2019-05-19T16:17:49.903Z,3.60
2019-05-19T16:20:19.501Z,3.80
2019-05-19T16:22:48.951Z,3.58
2019-05-19T16:25:18.395Z,3.50
2019-05-19T16:27:47.848Z,3.80
2019-05-19T16:30:17.317Z,3.77
2019-05-19T16:32:46.867Z,3.85
2019-05-19T16:35:16.468Z,3.72
2019-05-19T16:37:45.999Z,4.45
2019-05-19T16:40:15.562Z,4.00
2019-05-19T16:42:45.124Z,3.85
2019-05-19T16:45:15.153Z,3.80
2019-05-19T16:47:44.747Z,4.10
2019-05-19T16:50:14.326Z,4.15
2019-05-19T16:52:43.934Z,4.10
2019-05-19T16:55:20.725Z,4.42
2019-05-19T16:57:50.388Z,4.10
2019-05-19T17:00:20.312Z,4.00
2019-05-19T17:02:51.899Z,3.90
2019-05-19T17:05:21.390Z,4.60
2019-05-19T17:07:50.905Z,4.00
2019-05-19T17:10:20.840Z,4.08
2019-05-19T17:12:50.279Z,4.10
2019-05-19T17:15:20.670Z,3.83
2019-05-19T17:17:50.499Z,4.08
2019-05-19T17:20:20.233Z,4.20
2019-05-19T17:22:49.846Z,4.00
2019-05-19T17:25:20.338Z,4.75
2019-05-19T17:27:49.972Z,4.30
2019-05-19T17:30:20.261Z,5.20
2019-05-19T17:32:49.767Z,4.47
2019-05-19T17:35:19.524Z,4.47
2019-05-19T17:37:49.037Z,4.85
2019-05-19T17:40:18.826Z,4.45
2019-05-19T17:42:48.386Z,4.55
2019-05-19T17:45:17.979Z,5.00
2019-05-19T17:47:47.494Z,4.78
2019-05-19T17:50:20.095Z,5.53
2019-05-19T17:52:49.591Z,8.05
2019-05-19T17:55:19.079Z,14.95
2019-05-19T17:57:48.915Z,17.95
2019-05-19T18:00:23.836Z,79.75
2019-05-19T18:02:53.405Z,54.80
2019-05-19T18:05:23.075Z,13.75
2019-05-19T18:07:52.573Z,6.62
2019-05-19T18:10:22.085Z,27.82
2019-05-19T18:12:51.588Z,37.33
2019-05-19T18:15:21.058Z,14.90
2019-05-19T18:17:50.553Z,49.63
2019-05-19T18:20:23.956Z,45.28
2019-05-19T18:22:51.392Z,122.13
2019-05-19T18:25:20.896Z,98.87
2019-05-19T18:27:50.370Z,51.15
2019-05-19T18:30:19.988Z,22.20
2019-05-19T18:32:50.763Z,22.10
2019-05-19T18:35:20.298Z,15.20
2019-05-19T18:37:49.779Z,14.58
2019-05-19T18:40:19.318Z,12.33
2019-05-19T18:42:48.844Z,11.12
2019-05-19T18:45:18.424Z,10.20
2019-05-19T18:47:47.940Z,9.65
2019-05-19T18:50:17.590Z,8.30
2019-05-19T18:52:47.094Z,8.00
2019-05-19T18:55:16.898Z,7.37
2019-05-19T18:57:48.186Z,7.72
2019-05-19T19:00:32.608Z,7.30
2019-05-19T19:03:02.194Z,7.83
2019-05-19T19:05:32.010Z,7.50
2019-05-19T19:08:01.562Z,8.15
2019-05-19T19:10:31.059Z,9.63
2019-05-19T19:13:00.510Z,8.53
2019-05-19T19:15:30.154Z,8.25
2019-05-19T19:17:59.652Z,6.97
2019-05-19T19:20:29.145Z,7.72
2019-05-19T19:22:58.623Z,7.80
2019-05-19T19:25:28.226Z,7.92
2019-05-19T19:27:57.708Z,7.50
2019-05-19T19:30:27.208Z,7.67
2019-05-19T19:32:56.709Z,10.03
2019-05-19T19:35:26.217Z,31.33
2019-05-19T19:37:55.685Z,23.40
2019-05-19T19:40:34.189Z,26.20
2019-05-19T19:43:03.823Z,24.18
2019-05-19T19:45:33.388Z,20.55
2019-05-19T19:48:03.096Z,15.58
2019-05-19T19:50:32.555Z,17.05
2019-05-19T19:53:02.013Z,10.20
2019-05-19T19:55:31.553Z,9.63
2019-05-19T19:58:01.013Z,18.17
2019-05-19T20:00:44.368Z,10.60
2019-05-19T20:03:14.148Z,11.85
2019-05-19T20:05:43.596Z,27.93
2019-05-19T20:08:13.099Z,26.80
2019-05-19T20:10:42.704Z,26.40
2019-05-19T20:13:12.143Z,22.52
2019-05-19T20:15:41.631Z,21.68
2019-05-19T20:18:22.735Z,18.48
2019-05-19T20:20:52.289Z,17.00
2019-05-19T20:23:21.841Z,15.88
2019-05-19T20:25:51.407Z,29.82
2019-05-19T20:28:20.933Z,23.87
2019-05-19T20:30:50.453Z,20.97
2019-05-19T20:33:19.917Z,16.42
2019-05-19T20:35:49.367Z,13.60
2019-05-19T20:38:18.883Z,15.13
2019-05-19T20:40:48.345Z,26.25
2019-05-19T20:43:17.796Z,19.95
2019-05-19T20:45:47.263Z,16.50
2019-05-19T20:48:16.803Z,14.83
2019-05-19T20:50:46.277Z,22.32
2019-05-19T20:53:15.740Z,27.05
2019-05-19T20:55:45.229Z,27.13
2019-05-19T20:58:14.691Z,18.95
2019-05-19T21:00:50.483Z,17.90
2019-05-19T21:03:15.261Z,25.75
2019-05-19T21:05:44.793Z,28.85
2019-05-19T21:08:14.281Z,34.80
2019-05-19T21:10:43.737Z,25.57
2019-05-19T21:13:13.193Z,64.37
2019-05-19T21:15:42.693Z,41.28
2019-05-19T21:18:12.198Z,51.02
2019-05-19T21:20:41.643Z,67.72
2019-05-19T21:23:11.124Z,27.10
2019-05-19T21:25:40.613Z,24.70
2019-05-19T21:28:10.032Z,14.23
2019-05-19T21:30:39.527Z,9.05
2019-05-19T21:33:08.992Z,10.30
2019-05-19T21:35:38.499Z,8.10
2019-05-19T21:38:08.005Z,10.58
2019-05-19T21:40:37.419Z,8.35
2019-05-19T21:43:06.876Z,8.35
2019-05-19T21:45:36.361Z,6.97
2019-05-19T21:48:05.836Z,8.50
2019-05-19T21:50:35.287Z,7.90
2019-05-19T21:53:06.625Z,10.60
2019-05-19T21:55:35.958Z,8.60
2019-05-19T21:58:05.414Z,10.60
2019-05-19T22:00:35.868Z,7.65
2019-05-19T22:03:05.326Z,6.67
2019-05-19T22:05:34.809Z,6.97
2019-05-19T22:08:10.627Z,7.53
2019-05-19T22:10:40.138Z,7.50
2019-05-19T22:13:09.612Z,13.72
2019-05-19T22:15:39.136Z,9.08
2019-05-19T22:18:08.582Z,8.15
2019-05-19T22:20:38.187Z,11.95
2019-05-19T22:23:07.700Z,10.58
2019-05-19T22:25:37.216Z,13.70
2019-05-19T22:28:07.059Z,10.32
2019-05-19T22:30:36.596Z,11.33
2019-05-19T22:33:06.164Z,10.43
2019-05-19T22:35:35.647Z,12.73
2019-05-19T22:38:05.201Z,8.50
2019-05-19T22:40:34.863Z,7.40
2019-05-19T22:43:04.364Z,7.10
2019-05-19T22:45:33.912Z,9.08
2019-05-19T22:48:03.782Z,7.30
2019-05-19T22:50:33.363Z,7.40
2019-05-19T22:53:02.882Z,9.78
2019-05-19T22:55:32.383Z,9.20
2019-05-19T22:58:01.907Z,7.75
2019-05-19T23:00:31.404Z,6.90
2019-05-19T23:03:00.957Z,10.13
2019-05-19T23:05:30.437Z,7.60
2019-05-19T23:08:00.008Z,7.05
2019-05-19T23:10:29.558Z,6.67
2019-05-19T23:12:59.115Z,7.03
2019-05-19T23:15:28.841Z,7.20
2019-05-19T23:17:58.355Z,7.55
2019-05-19T23:20:27.858Z,7.08
2019-05-19T23:22:57.680Z,7.30
2019-05-19T23:25:27.231Z,6.97
2019-05-19T23:27:56.881Z,7.08
2019-05-19T23:30:26.435Z,8.63
2019-05-19T23:32:55.879Z,9.15
2019-05-19T23:35:25.498Z,8.48
2019-05-19T23:37:55.071Z,8.45
2019-05-19T23:40:24.549Z,7.03
2019-05-19T23:42:54.122Z,7.12
2019-05-19T23:45:23.883Z,7.40
2019-05-19T23:47:53.453Z,7.12
2019-05-19T23:50:23.034Z,7.75
2019-05-19T23:52:53.903Z,7.83
2019-05-19T23:55:23.423Z,7.55
2019-05-19T23:57:52.993Z,7.62
